createdAt,value
2023-04-24T00:00:27.102Z,13.50
2023-04-24T00:02:58.503Z,13.40
2023-04-24T00:05:26.432Z,13.40
2023-04-24T00:07:53.807Z,13.40
2023-04-24T00:10:21.308Z,13.40
2023-04-24T00:12:48.983Z,13.40
2023-04-24T00:15:16.668Z,13.30
2023-04-24T00:17:43.826Z,13.30
2023-04-24T00:20:11.956Z,13.30
2023-04-24T00:22:39.146Z,13.30
2023-04-24T00:25:07.059Z,13.30
2023-04-24T00:27:36.275Z,13.30
2023-04-24T00:30:04.720Z,13.30
2023-04-24T00:32:32.093Z,13.40
2023-04-24T00:34:59.378Z,13.40
2023-04-24T00:37:26.658Z,13.30
2023-04-24T00:39:54.090Z,13.30
2023-04-24T00:42:22.176Z,13.20
2023-04-24T00:44:50.065Z,13.30
2023-04-24T00:47:17.390Z,13.30
2023-04-24T00:49:45.040Z,13.30
2023-04-24T00:52:13.610Z,13.30
2023-04-24T00:54:42.006Z,13.10
2023-04-24T00:57:09.110Z,13.10
2023-04-24T00:59:37.850Z,13.20
2023-04-24T01:02:05.168Z,13.20
2023-04-24T01:04:32.822Z,13.20
2023-04-24T01:07:01.129Z,13.20
2023-04-24T01:09:28.732Z,13.10
2023-04-24T01:11:56.368Z,13.10
2023-04-24T01:14:24.741Z,13.10
2023-04-24T01:16:52.009Z,13.10
2023-04-24T01:19:20.632Z,13.00
2023-04-24T01:21:51.828Z,13.00
2023-04-24T01:24:20.752Z,13.00
2023-04-24T01:26:48.468Z,13.00
2023-04-24T01:29:15.847Z,13.00
2023-04-24T01:31:44.527Z,12.80
2023-04-24T01:34:12.229Z,12.80
2023-04-24T01:36:40.072Z,12.80
2023-04-24T01:39:07.737Z,12.70
2023-04-24T01:41:35.249Z,12.70
2023-04-24T01:44:03.847Z,12.60
2023-04-24T01:46:32.993Z,12.50
2023-04-24T01:49:02.100Z,12.40
2023-04-24T01:51:29.411Z,12.40
2023-04-24T01:53:58.062Z,12.30
2023-04-24T01:56:26.925Z,12.20
2023-04-24T01:58:56.031Z,12.00
2023-04-24T02:01:26.036Z,11.90
2023-04-24T02:03:53.579Z,11.90
2023-04-24T02:06:20.796Z,11.80
2023-04-24T02:08:48.453Z,11.80
2023-04-24T02:11:16.226Z,11.70
2023-04-24T02:13:43.431Z,11.60
2023-04-24T02:16:10.795Z,11.40
2023-04-24T02:18:38.018Z,11.30
2023-04-24T02:21:05.324Z,11.30
2023-04-24T02:23:32.662Z,11.40
2023-04-24T02:26:00.832Z,11.60
2023-04-24T02:28:28.102Z,11.80
2023-04-24T02:30:55.394Z,11.80
2023-04-24T02:33:23.415Z,11.60
2023-04-24T02:35:50.703Z,11.60
2023-04-24T02:38:17.975Z,11.60
2023-04-24T02:40:45.143Z,11.50
2023-04-24T02:43:12.403Z,11.40
2023-04-24T02:45:39.769Z,11.30
2023-04-24T02:48:07.293Z,11.10
2023-04-24T02:50:34.780Z,11.10
2023-04-24T02:53:01.913Z,11.10
2023-04-24T02:55:29.234Z,11.10
2023-04-24T02:57:56.391Z,11.00
2023-04-24T03:00:23.708Z,11.10
2023-04-24T03:02:51.896Z,11.30
2023-04-24T03:05:19.219Z,11.40
2023-04-24T03:07:46.805Z,11.40
2023-04-24T03:10:14.021Z,11.50
2023-04-24T03:12:41.223Z,11.50
2023-04-24T03:15:09.420Z,11.50
2023-04-24T03:17:38.191Z,11.50
2023-04-24T03:20:07.430Z,11.40
2023-04-24T03:22:35.418Z,11.30
2023-04-24T03:25:06.973Z,11.20
2023-04-24T03:27:34.494Z,11.10
2023-04-24T03:30:04.231Z,10.90
2023-04-24T03:32:44.351Z,10.80
2023-04-24T03:35:14.632Z,10.80
2023-04-24T03:37:42.645Z,10.80
2023-04-24T03:40:30.927Z,10.80
2023-04-24T03:42:59.652Z,10.70
2023-04-24T03:45:27.417Z,10.50
2023-04-24T03:47:54.782Z,10.50
2023-04-24T03:50:22.497Z,10.60
2023-04-24T03:52:51.098Z,10.50
2023-04-24T03:55:30.186Z,10.80
2023-04-24T03:57:57.408Z,10.90
2023-04-24T04:00:24.672Z,10.90
2023-04-24T04:03:05.884Z,10.90
2023-04-24T04:05:33.785Z,11.00
2023-04-24T04:08:01.356Z,11.00
2023-04-24T04:10:28.539Z,11.10
2023-04-24T04:12:57.226Z,11.10
2023-04-24T04:15:24.572Z,11.10
2023-04-24T04:17:52.357Z,11.20
2023-04-24T04:20:20.828Z,11.20
2023-04-24T04:22:48.660Z,11.20
2023-04-24T04:25:24.346Z,11.30
2023-04-24T04:27:53.540Z,11.30
2023-04-24T04:30:22.303Z,11.30
2023-04-24T04:32:57.801Z,11.40
2023-04-24T04:35:26.174Z,11.40
2023-04-24T04:37:54.370Z,11.40
2023-04-24T04:40:45.776Z,11.40
2023-04-24T04:43:17.655Z,11.40
2023-04-24T04:45:52.585Z,11.50
2023-04-24T04:48:39.094Z,11.50
2023-04-24T04:51:07.765Z,11.60
2023-04-24T04:53:34.970Z,11.60
2023-04-24T04:56:03.466Z,11.70
2023-04-24T04:58:38.158Z,11.70
2023-04-24T05:01:09.372Z,11.80
2023-04-24T05:03:41.997Z,11.70
2023-04-24T05:06:13.096Z,11.80
2023-04-24T05:08:41.361Z,11.80
2023-04-24T05:11:21.399Z,11.80
2023-04-24T05:13:48.899Z,11.80
2023-04-24T05:16:20.549Z,11.80
2023-04-24T05:18:49.938Z,11.90
2023-04-24T05:21:21.416Z,11.80
2023-04-24T05:23:52.263Z,11.90
2023-04-24T05:26:31.760Z,11.90
2023-04-24T05:29:01.338Z,11.90
2023-04-24T05:31:28.770Z,12.10
2023-04-24T05:33:56.320Z,12.10
2023-04-24T05:36:24.183Z,12.20
2023-04-24T05:38:52.517Z,12.30
2023-04-24T05:41:20.054Z,12.40
2023-04-24T05:43:47.422Z,12.50
2023-04-24T05:46:14.727Z,12.70
2023-04-24T05:48:42.236Z,12.80
2023-04-24T05:51:11.304Z,13.00
2023-04-24T05:53:38.930Z,13.20
2023-04-24T05:56:06.614Z,13.40
2023-04-24T05:58:34.019Z,13.70
2023-04-24T06:01:02.984Z,14.00
2023-04-24T06:03:30.438Z,14.20
2023-04-24T06:05:57.938Z,14.20
2023-04-24T06:08:26.802Z,14.20
2023-04-24T06:10:54.167Z,14.20
2023-04-24T06:13:22.976Z,14.10
2023-04-24T06:16:12.938Z,14.00
2023-04-24T06:18:43.758Z,14.20
2023-04-24T06:21:10.995Z,14.10
2023-04-24T06:23:38.266Z,13.90
2023-04-24T06:26:06.099Z,13.90
2023-04-24T06:28:33.201Z,14.00
2023-04-24T06:31:00.448Z,13.90
2023-04-24T06:33:27.679Z,13.80
2023-04-24T06:35:55.166Z,13.80
2023-04-24T06:38:22.376Z,13.80
2023-04-24T06:40:49.646Z,13.70
2023-04-24T06:43:16.847Z,13.80
2023-04-24T06:45:45.216Z,13.90
2023-04-24T06:48:12.877Z,14.10
2023-04-24T06:50:40.173Z,14.20
2023-04-24T06:53:07.588Z,14.30
2023-04-24T06:55:36.709Z,14.40
2023-04-24T06:58:03.928Z,14.50
2023-04-24T07:00:31.236Z,14.60
2023-04-24T07:02:58.923Z,14.70
2023-04-24T07:05:26.334Z,14.90
2023-04-24T07:07:54.510Z,14.90
2023-04-24T07:10:22.252Z,14.80
2023-04-24T07:12:49.587Z,14.80
2023-04-24T07:15:17.399Z,14.90
2023-04-24T07:17:45.540Z,14.80
2023-04-24T07:20:12.986Z,14.90
2023-04-24T07:22:40.216Z,15.10
2023-04-24T07:25:08.498Z,15.10
2023-04-24T07:27:37.469Z,15.40
2023-04-24T07:30:06.519Z,15.40
2023-04-24T07:32:33.648Z,15.80
2023-04-24T07:35:00.992Z,16.00
2023-04-24T07:37:29.120Z,15.90
2023-04-24T07:39:56.723Z,15.90
2023-04-24T07:42:23.969Z,15.90
2023-04-24T07:44:52.279Z,15.70
2023-04-24T07:47:19.443Z,15.60
2023-04-24T07:49:46.557Z,15.50
2023-04-24T07:52:13.727Z,15.40
2023-04-24T07:54:40.956Z,15.60
2023-04-24T07:57:09.350Z,15.80
2023-04-24T07:59:36.631Z,15.80
2023-04-24T08:02:03.703Z,15.50
2023-04-24T08:04:31.284Z,15.70
2023-04-24T08:06:58.593Z,15.80
2023-04-24T08:09:27.529Z,15.80
2023-04-24T08:11:55.046Z,15.70
2023-04-24T08:14:22.497Z,15.70
2023-04-24T08:16:49.657Z,15.80
2023-04-24T08:19:16.962Z,15.80
2023-04-24T08:21:44.133Z,15.80
2023-04-24T08:24:11.389Z,15.70
2023-04-24T08:26:38.631Z,15.60
2023-04-24T08:29:07.654Z,15.70
2023-04-24T08:31:35.267Z,15.40
2023-04-24T08:34:02.631Z,15.60
2023-04-24T08:36:43.406Z,15.60
2023-04-24T08:39:13.681Z,15.80
2023-04-24T08:41:44.352Z,15.70
2023-04-24T08:44:13.853Z,15.70
2023-04-24T08:46:42.338Z,15.70
2023-04-24T08:49:09.553Z,15.90
2023-04-24T08:51:39.158Z,16.00
2023-04-24T08:54:08.349Z,16.00
2023-04-24T08:56:38.983Z,16.00
2023-04-24T08:59:07.739Z,16.10
2023-04-24T09:01:38.514Z,15.80
2023-04-24T09:04:06.713Z,15.60
2023-04-24T09:06:35.460Z,15.20
2023-04-24T09:09:04.606Z,15.00
2023-04-24T09:11:33.952Z,14.90
2023-04-24T09:14:02.691Z,14.70
2023-04-24T09:16:31.066Z,14.50
2023-04-24T09:18:58.246Z,14.40
2023-04-24T09:21:25.600Z,14.30
2023-04-24T09:24:04.776Z,14.20
2023-04-24T09:26:33.845Z,14.10
2023-04-24T09:29:01.140Z,14.20
2023-04-24T09:31:29.992Z,14.20
2023-04-24T09:34:03.663Z,14.20
2023-04-24T09:36:43.619Z,14.20
2023-04-24T09:39:17.105Z,14.10
2023-04-24T09:41:57.028Z,14.00
2023-04-24T09:44:28.245Z,13.80
2023-04-24T09:46:57.963Z,13.80
2023-04-24T09:49:30.039Z,13.70
2023-04-24T09:52:08.385Z,13.60
2023-04-24T09:54:38.028Z,13.40
2023-04-24T09:57:05.933Z,13.30
2023-04-24T09:59:33.998Z,13.00
2023-04-24T10:02:02.769Z,13.00
2023-04-24T10:04:30.909Z,12.90
2023-04-24T10:06:58.760Z,12.90
2023-04-24T10:09:27.759Z,12.80
2023-04-24T10:11:56.335Z,12.70
2023-04-24T10:14:26.237Z,12.60
2023-04-24T10:16:59.765Z,12.70
2023-04-24T10:19:28.096Z,12.60
2023-04-24T10:21:56.948Z,12.70
2023-04-24T10:24:24.209Z,12.80
2023-04-24T10:26:51.607Z,12.80
2023-04-24T10:29:20.854Z,12.90
2023-04-24T10:31:48.393Z,12.90
2023-04-24T10:34:18.291Z,12.90
2023-04-24T10:36:52.690Z,12.90
2023-04-24T10:39:27.901Z,13.00
2023-04-24T10:41:59.223Z,12.90
2023-04-24T10:44:36.449Z,12.90
2023-04-24T10:47:03.756Z,12.90
2023-04-24T10:49:33.188Z,13.00
2023-04-24T10:52:07.471Z,13.00
2023-04-24T10:54:48.808Z,12.90
2023-04-24T10:57:22.960Z,12.90
2023-04-24T10:59:53.193Z,13.00
2023-04-24T11:02:39.287Z,13.10
2023-04-24T11:05:07.844Z,13.20
2023-04-24T11:08:13.273Z,13.30
2023-04-24T11:10:56.520Z,13.30
2023-04-24T11:13:24.756Z,13.20
2023-04-24T11:16:21.790Z,13.30
2023-04-24T11:18:55.326Z,13.30
2023-04-24T11:21:23.893Z,13.40
2023-04-24T11:23:51.772Z,13.20
2023-04-24T11:26:33.563Z,13.40
2023-04-24T11:29:10.069Z,13.20
2023-04-24T11:31:39.712Z,13.20
2023-04-24T11:34:11.946Z,13.20
2023-04-24T11:36:39.729Z,13.30
2023-04-24T11:39:07.237Z,13.00
2023-04-24T11:41:36.384Z,13.10
2023-04-24T11:44:06.799Z,13.00
2023-04-24T11:46:34.484Z,13.00
2023-04-24T11:49:01.968Z,13.00
2023-04-24T11:51:33.835Z,12.90
2023-04-24T11:54:09.397Z,12.80
2023-04-24T11:56:36.607Z,12.90
2023-04-24T11:59:05.756Z,13.00
2023-04-24T12:01:45.762Z,13.00
2023-04-24T12:04:14.618Z,13.00
2023-04-24T12:07:01.032Z,13.30
2023-04-24T12:09:28.439Z,13.30
2023-04-24T12:11:58.222Z,13.40
2023-04-24T12:14:25.722Z,13.40
2023-04-24T12:16:53.001Z,13.50
2023-04-24T12:19:23.286Z,13.40
2023-04-24T12:22:04.030Z,13.20
2023-04-24T12:24:32.268Z,13.30
2023-04-24T12:26:59.639Z,13.50
2023-04-24T12:29:27.066Z,13.70
2023-04-24T12:31:55.301Z,13.70
2023-04-24T12:34:23.872Z,13.60
2023-04-24T12:36:50.996Z,13.60
2023-04-24T12:39:20.556Z,13.50
2023-04-24T12:41:58.343Z,13.50
2023-04-24T12:44:36.014Z,13.40
2023-04-24T12:47:03.318Z,13.30
2023-04-24T12:49:33.510Z,13.30
2023-04-24T12:52:00.810Z,13.30
2023-04-24T12:54:33.908Z,13.50
2023-04-24T12:57:01.474Z,13.30
2023-04-24T12:59:28.685Z,13.40
2023-04-24T13:01:56.385Z,13.40
2023-04-24T13:04:23.804Z,13.70
2023-04-24T13:06:51.286Z,14.00
2023-04-24T13:09:18.446Z,13.80
2023-04-24T13:11:45.757Z,13.60
2023-04-24T13:14:12.960Z,13.50
2023-04-24T13:16:40.236Z,13.50
2023-04-24T13:19:07.354Z,13.50
2023-04-24T13:21:35.168Z,13.40
2023-04-24T13:24:02.439Z,13.40
2023-04-24T13:26:29.532Z,13.70
2023-04-24T13:28:56.775Z,13.70
2023-04-24T13:31:23.965Z,13.60
2023-04-24T13:33:51.358Z,13.40
2023-04-24T13:36:18.928Z,13.50
2023-04-24T13:38:46.269Z,13.40
2023-04-24T13:41:13.537Z,13.40
2023-04-24T13:43:43.063Z,13.40
2023-04-24T13:46:11.082Z,13.30
2023-04-24T13:48:38.481Z,13.30
2023-04-24T13:51:05.698Z,13.30
2023-04-24T13:53:33.996Z,13.40
2023-04-24T13:56:01.439Z,13.20
2023-04-24T13:58:29.194Z,13.10
2023-04-24T14:00:57.101Z,13.10
2023-04-24T14:03:24.803Z,13.20
2023-04-24T14:05:52.223Z,13.00
2023-04-24T14:08:19.434Z,13.00
2023-04-24T14:10:46.996Z,13.10
2023-04-24T14:13:14.893Z,13.10
2023-04-24T14:15:42.368Z,13.10
2023-04-24T14:18:09.653Z,13.20
2023-04-24T14:20:36.913Z,13.20
2023-04-24T14:23:05.198Z,13.20
2023-04-24T14:25:33.983Z,13.30
2023-04-24T14:28:01.251Z,13.30
2023-04-24T14:30:28.552Z,13.40
2023-04-24T14:32:55.721Z,13.30
2023-04-24T14:35:23.361Z,13.40
2023-04-24T14:37:51.262Z,13.40
2023-04-24T14:40:36.976Z,13.40
2023-04-24T14:43:06.001Z,13.50
2023-04-24T14:45:33.367Z,13.60
2023-04-24T14:48:00.654Z,13.60
2023-04-24T14:50:29.548Z,13.80
2023-04-24T14:52:58.805Z,13.70
2023-04-24T14:55:27.618Z,13.70
2023-04-24T14:57:55.557Z,13.90
2023-04-24T15:00:25.189Z,14.10
2023-04-24T15:02:52.851Z,14.00
2023-04-24T15:05:20.420Z,14.10
2023-04-24T15:07:48.032Z,14.10
2023-04-24T15:10:15.687Z,14.10
2023-04-24T15:12:43.101Z,14.10
2023-04-24T15:15:10.734Z,14.10
2023-04-24T15:17:38.048Z,14.00
2023-04-24T15:20:07.565Z,14.00
2023-04-24T15:22:36.358Z,14.10
2023-04-24T15:25:04.196Z,14.20
2023-04-24T15:27:44.501Z,14.20
2023-04-24T15:30:12.816Z,14.20
2023-04-24T15:32:40.776Z,14.30
2023-04-24T15:35:09.652Z,14.20
2023-04-24T15:37:39.602Z,14.20
2023-04-24T15:40:08.789Z,14.20
2023-04-24T15:42:36.642Z,14.20
2023-04-24T15:45:04.693Z,14.10
2023-04-24T15:47:34.272Z,14.10
2023-04-24T15:50:01.643Z,14.10
2023-04-24T15:52:28.862Z,14.10
2023-04-24T15:54:56.478Z,14.10
2023-04-24T15:57:24.104Z,13.90
2023-04-24T15:59:51.479Z,13.70
2023-04-24T16:02:22.078Z,13.70
2023-04-24T16:04:51.017Z,13.30
2023-04-24T16:07:18.567Z,12.80
2023-04-24T16:09:46.303Z,12.60
2023-04-24T16:12:13.525Z,12.10
2023-04-24T16:14:41.084Z,11.80
2023-04-24T16:17:08.350Z,11.80
2023-04-24T16:19:35.975Z,11.60
2023-04-24T16:22:04.087Z,11.30
2023-04-24T16:24:31.665Z,11.40
2023-04-24T16:26:58.990Z,11.30
2023-04-24T16:29:27.056Z,11.20
2023-04-24T16:31:55.275Z,11.10
2023-04-24T16:34:22.631Z,11.20
2023-04-24T16:36:49.958Z,11.20
2023-04-24T16:39:17.283Z,11.10
2023-04-24T16:41:45.430Z,11.10
2023-04-24T16:44:13.948Z,11.10
2023-04-24T16:46:41.262Z,11.00
2023-04-24T16:49:08.860Z,11.10
2023-04-24T16:51:36.783Z,11.20
2023-04-24T16:54:04.412Z,11.10
2023-04-24T16:56:31.619Z,11.00
2023-04-24T16:58:59.051Z,11.20
2023-04-24T17:01:26.459Z,11.10
2023-04-24T17:03:53.865Z,11.20
2023-04-24T17:06:21.421Z,11.10
2023-04-24T17:08:49.008Z,11.10
2023-04-24T17:11:16.446Z,11.20
2023-04-24T17:13:43.584Z,11.20
2023-04-24T17:16:11.341Z,11.20
2023-04-24T17:18:38.875Z,11.20
2023-04-24T17:21:06.266Z,11.10
2023-04-24T17:23:33.447Z,11.10
2023-04-24T17:26:01.708Z,11.20
2023-04-24T17:28:31.377Z,11.20
2023-04-24T17:30:59.598Z,11.10
2023-04-24T17:33:31.036Z,11.10
2023-04-24T17:35:59.960Z,11.20
2023-04-24T17:38:27.776Z,11.20
2023-04-24T17:40:55.053Z,11.20
2023-04-24T17:43:22.936Z,11.20
2023-04-24T17:45:52.376Z,11.20
2023-04-24T17:48:20.014Z,11.20
2023-04-24T17:50:47.284Z,11.20
2023-04-24T17:53:15.470Z,11.20
2023-04-24T17:55:49.083Z,11.10
2023-04-24T17:58:19.223Z,11.00
2023-04-24T18:00:47.276Z,10.90
2023-04-24T18:03:14.651Z,10.90
2023-04-24T18:05:42.318Z,11.00
2023-04-24T18:08:09.828Z,10.90
2023-04-24T18:10:37.029Z,11.00
2023-04-24T18:13:05.103Z,10.90
2023-04-24T18:15:32.883Z,10.90
2023-04-24T18:18:00.838Z,10.80
2023-04-24T18:20:28.223Z,10.90
2023-04-24T18:23:01.522Z,10.90
2023-04-24T18:25:30.995Z,10.90
2023-04-24T18:27:58.231Z,10.90
2023-04-24T18:30:26.653Z,10.90
2023-04-24T18:32:54.176Z,10.90
2023-04-24T18:35:22.567Z,10.90
2023-04-24T18:37:50.975Z,10.90
2023-04-24T18:40:18.952Z,10.80
2023-04-24T18:42:46.157Z,10.80
2023-04-24T18:45:15.037Z,10.90
2023-04-24T18:47:47.872Z,11.00
2023-04-24T18:50:15.758Z,10.90
2023-04-24T18:52:42.975Z,10.90
2023-04-24T18:55:10.451Z,10.90
2023-04-24T18:57:37.609Z,10.90
2023-04-24T19:00:06.303Z,10.90
2023-04-24T19:02:34.862Z,10.80
2023-04-24T19:05:02.603Z,10.80
2023-04-24T19:07:29.856Z,10.80
2023-04-24T19:09:57.073Z,10.80
2023-04-24T19:12:24.410Z,10.80
2023-04-24T19:14:52.095Z,10.80
2023-04-24T19:17:23.738Z,10.80
2023-04-24T19:19:52.336Z,10.70
2023-04-24T19:22:23.380Z,10.70
2023-04-24T19:24:50.589Z,10.70
2023-04-24T19:27:17.780Z,10.70
2023-04-24T19:29:45.291Z,10.70
2023-04-24T19:32:12.495Z,10.70
2023-04-24T19:34:41.457Z,10.70
2023-04-24T19:37:09.113Z,10.70
2023-04-24T19:39:36.323Z,10.70
2023-04-24T19:42:07.364Z,10.70
2023-04-24T19:44:35.106Z,10.80
2023-04-24T19:47:02.571Z,10.80
2023-04-24T19:49:30.499Z,10.80
2023-04-24T19:51:57.666Z,10.70
2023-04-24T19:54:25.443Z,10.80
2023-04-24T19:56:52.624Z,10.80
2023-04-24T19:59:19.858Z,10.70
2023-04-24T20:01:47.406Z,10.80
2023-04-24T20:04:14.934Z,10.80
2023-04-24T20:06:42.431Z,10.80
2023-04-24T20:09:10.104Z,10.70
2023-04-24T20:11:37.305Z,10.70
2023-04-24T20:14:04.972Z,10.60
2023-04-24T20:16:32.524Z,10.60
2023-04-24T20:19:00.002Z,10.60
2023-04-24T20:21:27.966Z,10.60
2023-04-24T20:23:55.100Z,10.60
2023-04-24T20:26:22.333Z,10.60
2023-04-24T20:28:49.978Z,10.60
2023-04-24T20:31:17.971Z,10.60
2023-04-24T20:33:45.812Z,10.60
2023-04-24T20:36:13.002Z,10.60
2023-04-24T20:38:40.316Z,10.50
2023-04-24T20:41:09.051Z,10.50
2023-04-24T20:43:37.072Z,10.50
2023-04-24T20:46:04.209Z,10.50
2023-04-24T20:48:31.688Z,10.50
2023-04-24T20:50:59.422Z,10.50
2023-04-24T20:53:26.801Z,10.40
2023-04-24T20:55:54.051Z,10.40
2023-04-24T20:58:23.116Z,10.40
2023-04-24T21:00:51.146Z,10.40
2023-04-24T21:03:18.987Z,10.50
2023-04-24T21:05:47.129Z,10.40
2023-04-24T21:08:14.611Z,10.40
2023-04-24T21:10:42.195Z,10.40
2023-04-24T21:13:09.909Z,10.40
2023-04-24T21:15:37.261Z,10.40
2023-04-24T21:18:04.851Z,10.50
2023-04-24T21:20:32.406Z,10.50
2023-04-24T21:22:59.708Z,10.50
2023-04-24T21:25:27.686Z,10.50
2023-04-24T21:27:55.833Z,10.40
2023-04-24T21:30:23.108Z,10.40
2023-04-24T21:32:52.260Z,10.50
2023-04-24T21:35:19.645Z,10.40
2023-04-24T21:37:47.280Z,10.50
2023-04-24T21:40:16.178Z,10.50
2023-04-24T21:42:44.137Z,10.50
2023-04-24T21:45:12.039Z,10.50
2023-04-24T21:47:39.452Z,10.50
2023-04-24T21:50:07.700Z,10.40
2023-04-24T21:52:35.023Z,10.40
2023-04-24T21:55:02.277Z,10.40
2023-04-24T21:57:30.518Z,10.40
2023-04-24T21:59:58.110Z,10.40
2023-04-24T22:02:25.975Z,10.40
2023-04-24T22:04:56.383Z,10.40
2023-04-24T22:07:24.300Z,10.30
2023-04-24T22:09:51.465Z,10.30
2023-04-24T22:12:18.832Z,10.40
2023-04-24T22:14:46.191Z,10.40
2023-04-24T22:17:15.441Z,10.30
2023-04-24T22:19:43.918Z,10.30
2023-04-24T22:22:11.119Z,10.30
2023-04-24T22:24:38.459Z,10.30
2023-04-24T22:27:06.225Z,10.30
2023-04-24T22:29:33.404Z,10.30
2023-04-24T22:32:01.300Z,10.30
2023-04-24T22:34:28.824Z,10.30
2023-04-24T22:36:56.193Z,10.30
2023-04-24T22:39:23.543Z,10.30
2023-04-24T22:41:50.773Z,10.30
2023-04-24T22:44:18.255Z,10.30
2023-04-24T22:46:45.911Z,10.30
2023-04-24T22:49:13.171Z,10.30
2023-04-24T22:51:41.974Z,10.20
2023-04-24T22:54:09.180Z,10.30
2023-04-24T22:56:36.516Z,10.20
2023-04-24T22:59:04.945Z,10.20
2023-04-24T23:01:32.553Z,10.30
2023-04-24T23:03:59.832Z,10.30
2023-04-24T23:06:28.339Z,10.20
2023-04-24T23:08:55.658Z,10.20
2023-04-24T23:11:22.975Z,10.20
2023-04-24T23:13:50.406Z,10.20
2023-04-24T23:16:17.909Z,10.10
2023-04-24T23:18:45.057Z,10.10
2023-04-24T23:21:12.554Z,10.20
2023-04-24T23:23:39.946Z,10.20
2023-04-24T23:26:07.137Z,10.20
2023-04-24T23:28:36.423Z,10.20
2023-04-24T23:31:03.673Z,10.20
2023-04-24T23:33:31.394Z,10.10
2023-04-24T23:35:58.714Z,10.20
2023-04-24T23:38:26.538Z,10.10
2023-04-24T23:40:54.808Z,10.10
2023-04-24T23:43:21.929Z,10.10
2023-04-24T23:45:49.312Z,10.10
2023-04-24T23:48:17.189Z,10.00
2023-04-24T23:50:44.512Z,10.00
2023-04-24T23:53:11.720Z,9.90
2023-04-24T23:55:38.988Z,10.00
2023-04-24T23:58:06.282Z,10.00
